Time;durP1;ratioP1;P1;durP2;ratioP2;P2;SDS_P1;SDS_P2;PMS_P1;PMS_P2;Temp;Humidity;BMP_temperature;BMP_pressure;BME280_temperature;BME280_humidity;BME280_pressure;Samples;Min_cycle;Max_cycle;Signal;HPM_P1;HPM_P2
2023/08/26 00:00:36;;;;;;;3.73;2.23;;;19.10;99.90;;;;;;5121897;28;20451;-93
2023/08/26 00:03:03;;;;;;;3.23;2.23;;;19.10;99.90;;;;;;5118035;28;20450;-91
2023/08/26 00:05:29;;;;;;;6.07;2.40;;;19.00;99.90;;;;;;5118664;28;20470;-93
2023/08/26 00:07:56;;;;;;;2.17;1.90;;;19.10;99.90;;;;;;5118647;28;20443;-94
2023/08/26 00:10:24;;;;;;;2.43;2.23;;;19.00;99.90;;;;;;5118535;28;20482;-93
2023/08/26 00:12:52;;;;;;;7.93;2.73;;;19.10;99.90;;;;;;5118378;28;20443;-93
2023/08/26 00:15:19;;;;;;;2.63;2.43;;;19.00;99.90;;;;;;5118638;28;20794;-94
2023/08/26 00:17:46;;;;;;;12.53;2.17;;;19.00;99.90;;;;;;5118613;28;20451;-95
2023/08/26 00:20:12;;;;;;;2.80;2.53;;;18.90;99.90;;;;;;5118614;28;20435;-93
2023/08/26 00:22:39;;;;;;;5.53;2.57;;;18.90;99.90;;;;;;5118139;28;20451;-93
2023/08/26 00:25:07;;;;;;;8.30;1.93;;;18.90;99.90;;;;;;5118219;28;20469;-93
2023/08/26 00:27:35;;;;;;;1.97;1.17;;;18.80;99.90;;;;;;5117971;28;20944;-94
2023/08/26 00:30:02;;;;;;;2.73;1.63;;;18.70;99.90;;;;;;5118049;28;20662;-94
2023/08/26 00:32:29;;;;;;;2.40;1.13;;;18.70;99.90;;;;;;5118664;28;20447;-95
2023/08/26 00:34:56;;;;;;;0.83;0.83;;;18.70;99.90;;;;;;5117493;28;20995;-93
2023/08/26 00:37:22;;;;;;;1.33;0.97;;;18.70;99.90;;;;;;5117241;28;20442;-92
2023/08/26 00:39:49;;;;;;;3.67;0.97;;;18.60;99.90;;;;;;5117821;28;20450;-92
2023/08/26 00:42:16;;;;;;;0.70;0.70;;;18.70;99.90;;;;;;5118426;28;20804;-92
2023/08/26 00:44:44;;;;;;;1.70;1.00;;;18.70;99.90;;;;;;5118009;28;20828;-92
2023/08/26 00:47:11;;;;;;;1.30;0.93;;;19.30;99.90;;;;;;5118331;28;20431;-91
2023/08/26 00:49:38;;;;;;;1.10;1.00;;;18.70;99.90;;;;;;5118134;28;20505;-91
2023/08/26 00:52:06;;;;;;;0.90;0.90;;;19.40;99.90;;;;;;5118114;28;20458;-91
2023/08/26 00:54:35;;;;;;;1.90;1.47;;;18.70;99.90;;;;;;5117679;28;20533;-91
2023/08/26 00:57:03;;;;;;;2.03;1.60;;;18.70;99.90;;;;;;5119139;28;20526;-91
2023/08/26 00:59:30;;;;;;;1.23;1.10;;;18.60;99.90;;;;;;5119110;28;20439;-93
2023/08/26 01:01:59;;;;;;;1.20;1.10;;;19.00;99.90;;;;;;5118053;28;20500;-93
2023/08/26 01:04:26;;;;;;;1.07;1.03;;;18.60;99.90;;;;;;5116193;28;20519;-92
2023/08/26 01:06:52;;;;;;;2.03;1.10;;;18.60;99.90;;;;;;5117718;28;20435;-92
2023/08/26 01:09:19;;;;;;;1.83;0.93;;;18.60;99.90;;;;;;5119395;28;20474;-93
2023/08/26 01:12:02;;;;;;;3.07;1.17;;;18.50;99.90;;;;;;5118810;28;20453;-95
2023/08/26 01:14:35;;;;;;;2.17;1.00;;;18.50;99.90;;;;;;5116327;28;20877;-86
2023/08/26 01:17:05;;;;;;;5.70;0.87;;;18.50;99.90;;;;;;5115142;28;20408;-89
2023/08/26 01:19:36;;;;;;;1.73;1.20;;;18.50;99.90;;;;;;5117394;28;20815;-93
2023/08/26 01:22:06;;;;;;;1.30;1.00;;;18.50;99.90;;;;;;5117604;28;20470;-92
2023/08/26 01:24:35;;;;;;;2.40;1.70;;;18.60;99.90;;;;;;5117157;28;20967;-92
2023/08/26 01:27:02;;;;;;;2.20;1.57;;;18.50;99.90;;;;;;5116428;28;20447;-91
2023/08/26 01:29:29;;;;;;;0.83;0.83;;;18.60;99.90;;;;;;5117248;28;20831;-92
2023/08/26 01:32:07;;;;;;;1.10;0.70;;;18.80;99.90;;;;;;5120229;28;20818;-92
2023/08/26 01:34:36;;;;;;;0.87;0.70;;;18.60;99.90;;;;;;5121166;28;20407;-92
2023/08/26 01:37:04;;;;;;;1.33;0.70;;;18.70;99.90;;;;;;5121616;28;20951;-92
2023/08/26 01:39:32;;;;;;;4.63;1.20;;;18.60;99.90;;;;;;5121300;28;20443;-91
2023/08/26 01:42:02;;;;;;;1.17;0.87;;;18.60;99.90;;;;;;5121505;28;20455;-92
2023/08/26 01:44:31;;;;;;;0.70;0.70;;;18.60;99.90;;;;;;5121158;28;20434;-91
2023/08/26 01:46:58;;;;;;;1.43;1.33;;;18.60;99.90;;;;;;5121571;28;20443;-93
2023/08/26 01:49:24;;;;;;;1.10;0.90;;;18.60;99.90;;;;;;5120892;28;20474;-92
2023/08/26 01:51:51;;;;;;;1.00;0.80;;;18.60;99.90;;;;;;5120818;28;20423;-91
2023/08/26 01:54:18;;;;;;;2.47;1.10;;;18.60;99.90;;;;;;5120365;28;20447;-91
2023/08/26 01:56:45;;;;;;;3.03;1.20;;;18.70;99.90;;;;;;5120126;28;20462;-91
2023/08/26 01:59:13;;;;;;;1.57;1.03;;;18.60;99.90;;;;;;5119693;28;20449;-91
2023/08/26 02:01:39;;;;;;;2.13;1.33;;;18.60;99.90;;;;;;5120434;28;20451;-90
2023/08/26 02:04:06;;;;;;;2.40;1.03;;;18.50;99.90;;;;;;5120199;28;20998;-90
2023/08/26 02:06:33;;;;;;;1.03;0.90;;;18.60;99.90;;;;;;5119895;28;20673;-90
2023/08/26 02:09:00;;;;;;;1.73;1.20;;;18.60;99.90;;;;;;5119401;28;20447;-90
2023/08/26 02:11:27;;;;;;;0.90;0.73;;;18.70;99.90;;;;;;5119508;28;20439;-90
2023/08/26 02:13:53;;;;;;;1.33;0.93;;;18.50;99.90;;;;;;5119294;28;20450;-91
2023/08/26 02:16:22;;;;;;;0.90;0.83;;;18.50;99.90;;;;;;5117680;28;20477;-91
2023/08/26 02:18:48;;;;;;;1.30;1.20;;;18.40;99.90;;;;;;5117972;28;20927;-90
2023/08/26 02:21:15;;;;;;;1.73;1.10;;;18.50;99.90;;;;;;5117780;28;20431;-91
2023/08/26 02:23:42;;;;;;;6.03;1.03;;;18.50;99.90;;;;;;5118127;28;20450;-90
2023/08/26 02:26:09;;;;;;;1.00;0.90;;;18.40;99.90;;;;;;5117715;28;20474;-90
2023/08/26 02:28:35;;;;;;;1.47;1.10;;;18.40;99.90;;;;;;5117825;28;20946;-90
2023/08/26 02:31:02;;;;;;;1.70;1.43;;;18.40;99.90;;;;;;5117566;28;20987;-90
2023/08/26 02:33:30;;;;;;;0.70;0.70;;;18.30;99.90;;;;;;5118113;28;20431;-89
2023/08/26 02:35:57;;;;;;;1.00;1.00;;;18.50;99.90;;;;;;5117484;28;20465;-90
2023/08/26 02:38:24;;;;;;;1.23;1.13;;;18.50;99.90;;;;;;5117544;28;20808;-89
2023/08/26 02:40:55;;;;;;;1.63;1.13;;;18.50;99.90;;;;;;5117299;28;20447;-89
2023/08/26 02:43:22;;;;;;;3.60;1.40;;;18.60;99.90;;;;;;5116094;28;20940;-89
2023/08/26 02:45:52;;;;;;;1.23;1.10;;;18.50;99.90;;;;;;5116922;28;20997;-89
2023/08/26 02:48:19;;;;;;;1.83;1.10;;;18.40;99.90;;;;;;5116943;28;20453;-89
2023/08/26 02:50:47;;;;;;;1.73;1.30;;;18.50;99.90;;;;;;5116711;28;20485;-89
2023/08/26 02:53:15;;;;;;;1.03;0.93;;;18.50;99.90;;;;;;5116860;28;20457;-89
2023/08/26 02:55:41;;;;;;;1.03;0.90;;;18.60;99.90;;;;;;5116419;28;20952;-88
2023/08/26 02:58:08;;;;;;;5.47;1.80;;;18.40;99.90;;;;;;5116493;27;20940;-88
2023/08/26 03:00:35;;;;;;;2.43;1.37;;;18.40;99.90;;;;;;5116752;28;20431;-89
2023/08/26 03:03:02;;;;;;;2.00;1.13;;;18.40;99.90;;;;;;5116537;28;20541;-88
2023/08/26 03:05:28;;;;;;;1.63;1.40;;;18.40;99.90;;;;;;5116555;28;20459;-89
2023/08/26 03:07:56;;;;;;;1.70;1.60;;;18.50;99.90;;;;;;5116686;28;20447;-89
2023/08/26 03:10:23;;;;;;;2.10;1.37;;;18.50;99.90;;;;;;5116260;28;20479;-89
2023/08/26 03:12:50;;;;;;;6.73;1.73;;;18.50;99.90;;;;;;5116416;28;20439;-88
2023/08/26 03:15:17;;;;;;;2.30;1.97;;;18.50;99.90;;;;;;5116215;28;20459;-88
2023/08/26 03:17:45;;;;;;;4.33;1.50;;;18.40;99.90;;;;;;5116084;28;20940;-88
2023/08/26 03:20:12;;;;;;;2.53;2.10;;;18.40;99.90;;;;;;5115821;28;20458;-88
2023/08/26 03:22:39;;;;;;;2.50;2.17;;;18.40;99.90;;;;;;5116199;28;20823;-88
2023/08/26 03:25:08;;;;;;;1.33;1.20;;;18.40;99.90;;;;;;5116110;28;20825;-88
2023/08/26 03:27:34;;;;;;;2.50;1.70;;;18.40;99.90;;;;;;5116005;28;20553;-88
2023/08/26 03:30:01;;;;;;;2.30;2.00;;;18.30;99.90;;;;;;5116016;28;20853;-88
2023/08/26 03:32:28;;;;;;;2.17;1.60;;;18.30;99.90;;;;;;5115815;28;20455;-89
2023/08/26 03:34:55;;;;;;;2.17;1.83;;;18.30;99.90;;;;;;5115721;28;20465;-88
2023/08/26 03:37:21;;;;;;;2.23;1.70;;;18.20;99.90;;;;;;5115989;28;20446;-88
2023/08/26 03:39:48;;;;;;;1.67;1.43;;;18.20;99.90;;;;;;5115788;28;20445;-88
2023/08/26 03:42:16;;;;;;;1.67;1.57;;;18.20;99.90;;;;;;5115786;28;20458;-88
2023/08/26 03:44:43;;;;;;;4.37;2.03;;;18.20;99.90;;;;;;5115719;28;20447;-88
2023/08/26 03:47:10;;;;;;;1.67;1.33;;;18.20;99.90;;;;;;5115676;28;20447;-88
2023/08/26 03:49:37;;;;;;;6.33;1.53;;;18.10;99.90;;;;;;5116060;28;20777;-88
2023/08/26 03:52:04;;;;;;;1.93;1.77;;;18.10;99.90;;;;;;5115574;28;20443;-88
2023/08/26 03:54:31;;;;;;;1.93;1.70;;;18.10;99.90;;;;;;5114921;28;20443;-88
2023/08/26 03:56:57;;;;;;;2.50;1.43;;;18.00;99.90;;;;;;5115430;28;20439;-88
2023/08/26 03:59:25;;;;;;;1.90;1.70;;;18.00;99.90;;;;;;5115277;28;20810;-88
2023/08/26 04:01:52;;;;;;;1.47;1.37;;;17.90;99.90;;;;;;5115443;28;20827;-88
2023/08/26 04:04:19;;;;;;;1.97;1.87;;;17.90;99.90;;;;;;5114921;28;20477;-88
2023/08/26 04:06:46;;;;;;;1.73;1.30;;;17.90;99.90;;;;;;5115311;27;20467;-88
2023/08/26 04:09:12;;;;;;;1.23;1.10;;;17.90;99.90;;;;;;5115049;28;20473;-88
2023/08/26 04:11:40;;;;;;;8.13;1.73;;;17.90;99.90;;;;;;5115184;28;20494;-88
2023/08/26 04:14:07;;;;;;;1.37;1.13;;;17.80;99.90;;;;;;5115081;28;20783;-88
2023/08/26 04:16:35;;;;;;;2.50;1.73;;;17.80;99.90;;;;;;5115060;28;20462;-88
2023/08/26 04:19:02;;;;;;;1.30;1.20;;;17.80;99.90;;;;;;5115115;27;20486;-88
2023/08/26 04:21:29;;;;;;;2.43;1.83;;;17.90;99.90;;;;;;5115235;28;20446;-89
2023/08/26 04:23:56;;;;;;;4.07;1.90;;;17.80;99.90;;;;;;5115086;28;20443;-88
2023/08/26 04:26:23;;;;;;;1.47;1.37;;;17.90;99.90;;;;;;5114999;28;20972;-89
2023/08/26 04:28:49;;;;;;;2.27;1.57;;;17.90;99.90;;;;;;5115300;28;20451;-89
2023/08/26 04:31:16;;;;;;;4.43;1.97;;;17.90;99.90;;;;;;5115053;28;20479;-88
2023/08/26 04:33:44;;;;;;;1.73;1.63;;;17.90;99.90;;;;;;5114732;28;20940;-88
2023/08/26 04:36:10;;;;;;;4.23;1.60;;;17.90;99.90;;;;;;5114903;28;20473;-88
2023/08/26 04:38:37;;;;;;;3.33;2.10;;;17.90;99.90;;;;;;5114933;28;20453;-88
2023/08/26 04:41:04;;;;;;;2.37;2.17;;;17.90;99.90;;;;;;5115004;28;20442;-88
2023/08/26 04:43:31;;;;;;;1.70;1.50;;;17.80;99.90;;;;;;5114807;28;20452;-88
2023/08/26 04:45:58;;;;;;;2.67;1.50;;;17.80;99.90;;;;;;5117460;28;20451;-88
2023/08/26 04:48:24;;;;;;;2.50;2.00;;;17.80;99.90;;;;;;5115230;28;20443;-89
2023/08/26 04:50:52;;;;;;;3.77;1.70;;;17.70;99.90;;;;;;5114895;28;20486;-89
2023/08/26 04:53:19;;;;;;;1.73;1.57;;;17.70;99.90;;;;;;5114890;28;20525;-89
2023/08/26 04:55:49;;;;;;;2.50;1.63;;;17.70;99.90;;;;;;5114707;28;20460;-89
2023/08/26 04:58:17;;;;;;;3.67;1.73;;;17.70;99.90;;;;;;5114854;28;20431;-89
2023/08/26 05:00:44;;;;;;;2.83;1.43;;;17.80;99.90;;;;;;5114929;28;20897;-89
2023/08/26 05:03:10;;;;;;;2.93;1.70;;;17.80;99.90;;;;;;5114382;28;20463;-89
2023/08/26 05:05:41;;;;;;;2.20;1.73;;;17.80;99.90;;;;;;5115393;28;20467;-89
2023/08/26 05:08:09;;;;;;;3.97;1.40;;;17.90;99.90;;;;;;5119046;28;20427;-89
2023/08/26 05:10:36;;;;;;;4.37;1.73;;;17.90;99.90;;;;;;5119109;28;20479;-88
2023/08/26 05:13:03;;;;;;;2.40;1.90;;;17.90;99.90;;;;;;5119235;28;20538;-90
2023/08/26 05:15:30;;;;;;;1.73;1.27;;;17.90;99.90;;;;;;5119260;28;20457;-90
2023/08/26 05:17:57;;;;;;;1.67;1.30;;;18.60;99.90;;;;;;5119902;28;20447;-90
2023/08/26 05:20:24;;;;;;;1.47;1.30;;;17.90;99.90;;;;;;5119021;28;20445;-91
2023/08/26 05:22:51;;;;;;;4.00;2.37;;;17.90;99.90;;;;;;5119232;28;20439;-90
2023/08/26 05:25:19;;;;;;;4.03;1.80;;;17.90;99.90;;;;;;5119202;28;20455;-90
2023/08/26 05:27:45;;;;;;;1.97;1.87;;;17.90;99.90;;;;;;5118960;28;20442;-90
2023/08/26 05:30:13;;;;;;;1.73;1.53;;;17.90;99.90;;;;;;5119131;28;20493;-90
2023/08/26 05:32:40;;;;;;;1.63;1.40;;;17.90;99.90;;;;;;5119014;28;20451;-91
2023/08/26 05:35:07;;;;;;;1.83;1.47;;;17.90;99.90;;;;;;5118915;27;20459;-90
2023/08/26 05:37:34;;;;;;;1.97;1.80;;;17.90;99.90;;;;;;5118732;28;20961;-90
2023/08/26 05:40:01;;;;;;;2.53;1.73;;;18.00;99.90;;;;;;5118678;28;20449;-91
2023/08/26 05:42:29;;;;;;;1.30;1.20;;;18.00;99.90;;;;;;5118707;28;20469;-90
2023/08/26 05:44:56;;;;;;;3.20;2.07;;;18.40;99.90;;;;;;5118725;28;20466;-91
2023/08/26 05:47:22;;;;;;;3.70;1.30;;;18.00;99.90;;;;;;5119310;27;20446;-91
2023/08/26 05:49:49;;;;;;;5.97;2.07;;;18.10;99.90;;;;;;5118594;28;20447;-90
2023/08/26 05:52:16;;;;;;;1.87;1.67;;;18.10;99.90;;;;;;5118537;28;20489;-91
2023/08/26 05:54:43;;;;;;;1.70;1.53;;;18.10;99.90;;;;;;5118420;27;20457;-91
2023/08/26 05:57:11;;;;;;;2.57;1.93;;;18.10;99.90;;;;;;5118300;28;20496;-91
2023/08/26 05:59:39;;;;;;;3.70;1.23;;;18.20;99.90;;;;;;5118146;28;20942;-91
2023/08/26 06:02:06;;;;;;;5.20;2.20;;;19.20;99.90;;;;;;5118690;28;20868;-91
2023/08/26 06:04:33;;;;;;;3.33;2.00;;;18.40;99.90;;;;;;5117921;28;20481;-92
2023/08/26 06:07:00;;;;;;;6.10;2.10;;;18.60;99.90;;;;;;5117683;27;20453;-92
2023/08/26 06:09:27;;;;;;;2.63;1.80;;;18.70;99.90;;;;;;5117628;28;20447;-92
2023/08/26 06:11:54;;;;;;;4.10;1.67;;;18.70;99.90;;;;;;5117938;28;20497;-92
2023/08/26 06:14:21;;;;;;;2.40;1.17;;;18.90;99.90;;;;;;5117802;28;20811;-92
2023/08/26 06:16:49;;;;;;;2.10;1.40;;;18.80;99.90;;;;;;5117173;28;20475;-92
2023/08/26 06:19:16;;;;;;;3.03;1.63;;;19.00;99.90;;;;;;5117654;28;20443;-92
2023/08/26 06:21:43;;;;;;;2.13;1.50;;;18.80;99.90;;;;;;5117581;28;20447;-92
2023/08/26 06:24:10;;;;;;;3.03;1.50;;;19.00;99.90;;;;;;5117738;28;20815;-92
2023/08/26 06:26:36;;;;;;;3.03;1.60;;;19.10;99.90;;;;;;5117264;28;20447;-92
2023/08/26 06:29:03;;;;;;;3.27;2.03;;;19.00;99.90;;;;;;5117520;28;20445;-92
2023/08/26 06:31:30;;;;;;;8.03;2.57;;;19.00;99.90;;;;;;5117072;28;20490;-92
2023/08/26 06:33:58;;;;;;;1.83;1.60;;;19.00;99.90;;;;;;5117361;28;20443;-92
2023/08/26 06:36:25;;;;;;;6.13;2.50;;;19.10;99.90;;;;;;5117316;28;20512;-92
2023/08/26 06:38:52;;;;;;;2.10;2.00;;;19.10;99.90;;;;;;5117278;28;20443;-92
2023/08/26 06:41:18;;;;;;;2.50;1.67;;;19.20;99.90;;;;;;5116913;27;20436;-92
2023/08/26 06:43:45;;;;;;;4.33;1.60;;;19.10;99.90;;;;;;5117251;27;20443;-93
2023/08/26 06:46:12;;;;;;;2.63;2.00;;;19.10;99.90;;;;;;5117089;27;20833;-92
2023/08/26 06:48:39;;;;;;;3.83;1.73;;;19.10;99.90;;;;;;5116789;28;20441;-91
2023/08/26 06:51:07;;;;;;;6.73;1.67;;;19.10;99.90;;;;;;5116965;28;20479;-92
2023/08/26 06:53:34;;;;;;;13.93;1.90;;;19.10;99.90;;;;;;5116862;28;20978;-92
2023/08/26 06:56:01;;;;;;;2.70;2.20;;;19.10;99.90;;;;;;5116946;28;20482;-91
2023/08/26 06:58:27;;;;;;;3.53;1.57;;;19.10;99.90;;;;;;5117004;28;20485;-92
2023/08/26 07:00:54;;;;;;;1.80;1.40;;;19.10;99.90;;;;;;5116979;28;20431;-91
2023/08/26 07:03:21;;;;;;;3.23;1.63;;;19.10;99.90;;;;;;5116519;28;20483;-92
2023/08/26 07:05:48;;;;;;;6.97;2.07;;;19.10;99.90;;;;;;5116741;28;20459;-93
2023/08/26 07:08:16;;;;;;;2.77;1.73;;;19.20;99.90;;;;;;5116442;28;20932;-93
2023/08/26 07:10:45;;;;;;;2.90;2.17;;;19.20;99.90;;;;;;5116649;28;20447;-92
2023/08/26 07:13:11;;;;;;;3.07;2.00;;;19.30;99.90;;;;;;5116586;28;20447;-92
2023/08/26 07:15:38;;;;;;;6.57;2.00;;;19.40;99.90;;;;;;5116234;28;20478;-92
2023/08/26 07:18:06;;;;;;;2.53;1.57;;;19.50;99.90;;;;;;5116716;28;20443;-93
2023/08/26 07:20:33;;;;;;;1.67;1.33;;;19.60;99.90;;;;;;5116656;28;20450;-93
2023/08/26 07:23:00;;;;;;;1.43;1.33;;;19.70;99.90;;;;;;5116437;28;20450;-93
2023/08/26 07:25:28;;;;;;;2.87;2.13;;;19.80;99.90;;;;;;5116563;28;20458;-94
2023/08/26 07:27:55;;;;;;;1.73;1.30;;;19.80;99.90;;;;;;5123027;28;20505;-93
2023/08/26 07:30:22;;;;;;;2.10;2.00;;;19.80;99.90;;;;;;5118274;28;20446;-93
2023/08/26 07:32:49;;;;;;;2.00;1.90;;;19.90;99.90;;;;;;5130365;28;20474;-92
2023/08/26 07:35:15;;;;;;;1.43;1.20;;;19.90;99.90;;;;;;5123685;28;20462;-93
2023/08/26 07:37:42;;;;;;;1.80;1.03;;;20.00;99.90;;;;;;5127879;28;20811;-94
2023/08/26 07:40:14;;;;;;;1.93;1.80;;;20.20;99.90;;;;;;5128144;28;20434;-94
2023/08/26 07:42:42;;;;;;;2.30;1.67;;;20.10;99.90;;;;;;5123939;28;20421;-94
2023/08/26 07:45:10;;;;;;;3.80;2.13;;;20.20;99.90;;;;;;5119044;28;20467;-92
2023/08/26 07:47:37;;;;;;;1.67;1.57;;;20.10;99.90;;;;;;5117913;28;20454;-93
2023/08/26 07:50:04;;;;;;;4.33;1.20;;;20.10;99.90;;;;;;5116223;28;20504;-92
2023/08/26 07:52:31;;;;;;;2.70;2.13;;;20.20;99.90;;;;;;5116643;28;20847;-91
2023/08/26 07:54:57;;;;;;;4.43;1.70;;;20.30;99.90;;;;;;5116351;28;20455;-92
2023/08/26 07:57:24;;;;;;;1.87;1.30;;;20.50;99.90;;;;;;5115953;28;20439;-92
2023/08/26 07:59:52;;;;;;;1.50;1.40;;;20.50;99.90;;;;;;5116027;28;20931;-92
2023/08/26 08:02:19;;;;;;;1.73;1.60;;;20.60;99.90;;;;;;5115755;28;20443;-93
2023/08/26 08:04:46;;;;;;;3.60;1.97;;;20.70;99.90;;;;;;5115458;28;20855;-93
2023/08/26 08:07:13;;;;;;;2.57;1.50;;;20.60;99.90;;;;;;5115867;28;20445;-91
2023/08/26 08:09:40;;;;;;;1.87;1.50;;;20.60;99.90;;;;;;5115904;28;20443;-92
2023/08/26 08:12:08;;;;;;;1.40;1.20;;;20.50;99.90;;;;;;5115665;28;20844;-92
2023/08/26 08:14:35;;;;;;;1.53;1.43;;;20.40;99.90;;;;;;5115472;28;20810;-92
2023/08/26 08:17:03;;;;;;;1.93;1.13;;;20.50;99.90;;;;;;5115908;28;20900;-92
2023/08/26 08:19:30;;;;;;;2.80;2.00;;;20.40;99.90;;;;;;5115584;28;20431;-91
2023/08/26 08:21:57;;;;;;;1.30;1.10;;;20.50;99.90;;;;;;5115675;28;20439;-92
2023/08/26 08:24:23;;;;;;;1.70;1.47;;;21.40;99.90;;;;;;5115428;28;20446;-92
2023/08/26 08:26:50;;;;;;;1.57;1.47;;;20.50;99.90;;;;;;5115278;28;20435;-91
2023/08/26 08:29:17;;;;;;;3.53;1.27;;;20.70;99.90;;;;;;5115573;28;20450;-92
2023/08/26 08:31:44;;;;;;;1.00;1.00;;;20.70;99.90;;;;;;5115124;28;20489;-91
2023/08/26 08:34:13;;;;;;;1.60;1.30;;;20.70;99.90;;;;;;5115303;28;20442;-91
2023/08/26 08:36:40;;;;;;;8.57;1.93;;;20.70;99.90;;;;;;5115077;28;20463;-91
2023/08/26 08:39:07;;;;;;;3.17;1.80;;;20.70;99.90;;;;;;5115255;28;20541;-92
2023/08/26 08:41:36;;;;;;;8.63;2.07;;;20.70;99.90;;;;;;5115484;28;20431;-91
2023/08/26 08:44:10;;;;;;;4.70;2.03;;;20.70;99.90;;;;;;5115076;28;20493;-91
2023/08/26 08:46:38;;;;;;;1.50;1.40;;;20.70;99.90;;;;;;5115264;28;20465;-90
2023/08/26 08:49:05;;;;;;;2.70;1.33;;;20.50;99.90;;;;;;5114983;28;20434;-91
2023/08/26 08:51:35;;;;;;;4.00;2.03;;;20.60;99.90;;;;;;5114682;28;20481;-90
2023/08/26 08:54:04;;;;;;;4.60;1.23;;;20.70;99.90;;;;;;5114697;28;20455;-90
2023/08/26 08:56:32;;;;;;;2.40;1.20;;;20.70;99.90;;;;;;5114970;28;20462;-90
2023/08/26 08:59:00;;;;;;;1.67;1.47;;;20.70;99.90;;;;;;5114855;28;20487;-90
2023/08/26 09:01:30;;;;;;;1.63;1.13;;;21.00;99.90;;;;;;5114974;28;20534;-89
2023/08/26 09:03:57;;;;;;;2.30;1.00;;;21.40;99.90;;;;;;5114457;28;20523;-89
2023/08/26 09:06:24;;;;;;;1.73;1.10;;;21.80;99.90;;;;;;5114431;28;20816;-88
2023/08/26 09:08:54;;;;;;;1.10;1.10;;;22.00;99.90;;;;;;5114717;28;20788;-89
2023/08/26 09:11:20;;;;;;;1.83;1.10;;;22.00;99.90;;;;;;5114343;28;20967;-89
2023/08/26 09:13:47;;;;;;;2.80;1.53;;;22.10;99.90;;;;;;5114328;28;20919;-89
2023/08/26 09:16:14;;;;;;;2.20;1.20;;;22.30;99.90;;;;;;5114590;28;20474;-89
2023/08/26 09:18:41;;;;;;;1.63;1.53;;;22.30;99.90;;;;;;5114419;28;20958;-89
2023/08/26 09:21:09;;;;;;;1.67;1.57;;;22.20;99.90;;;;;;5114525;28;20439;-92
2023/08/26 09:23:43;;;;;;;2.07;1.03;;;22.20;99.90;;;;;;5114655;28;20443;-91
2023/08/26 09:26:12;;;;;;;1.93;1.70;;;22.10;99.90;;;;;;5114203;28;20466;-91
2023/08/26 09:28:39;;;;;;;2.10;1.33;;;22.10;99.90;;;;;;5114560;28;20450;-89
2023/08/26 09:31:07;;;;;;;1.60;1.50;;;21.90;99.90;;;;;;5114531;28;20446;-90
2023/08/26 09:33:34;;;;;;;1.50;1.30;;;21.80;99.90;;;;;;5114503;28;20430;-87
2023/08/26 09:36:07;;;;;;;1.27;0.90;;;21.60;99.90;;;;;;5114329;28;20466;-90
2023/08/26 09:38:44;;;;;;;1.40;1.30;;;21.40;99.90;;;;;;5114410;28;20442;-89
2023/08/26 09:41:12;;;;;;;5.10;1.37;;;21.30;99.90;;;;;;5114166;28;20423;-89
2023/08/26 09:43:42;;;;;;;1.90;1.10;;;21.10;99.90;;;;;;5114441;28;20449;-88
2023/08/26 09:46:09;;;;;;;1.10;1.10;;;21.00;99.90;;;;;;5114219;28;20469;-88
2023/08/26 09:48:35;;;;;;;2.40;2.20;;;21.00;99.90;;;;;;5114254;28;20442;-88
2023/08/26 09:51:07;;;;;;;1.47;1.37;;;20.90;99.90;;;;;;5114409;28;20442;-89
2023/08/26 09:53:34;;;;;;;3.53;1.43;;;20.90;99.90;;;;;;5117610;28;20462;-88
2023/08/26 09:56:02;;;;;;;1.70;1.60;;;20.80;99.90;;;;;;5117889;28;20458;-87
2023/08/26 09:58:30;;;;;;;3.00;1.67;;;20.90;99.90;;;;;;5117944;28;20450;-88
2023/08/26 10:00:58;;;;;;;1.93;1.83;;;21.10;99.90;;;;;;5117929;27;20811;-88
2023/08/26 10:03:25;;;;;;;1.60;1.43;;;21.20;99.90;;;;;;5117427;28;20470;-89
2023/08/26 10:05:55;;;;;;;1.53;1.43;;;21.20;99.90;;;;;;5117650;28;20461;-89
2023/08/26 10:08:30;;;;;;;1.97;1.83;;;21.30;99.90;;;;;;5117841;28;20442;-89
2023/08/26 10:11:02;;;;;;;1.73;1.60;;;21.30;99.90;;;;;;5117589;28;20793;-88
2023/08/26 10:13:35;;;;;;;6.00;1.90;;;21.30;99.90;;;;;;5117681;28;21005;-88
2023/08/26 10:16:04;;;;;;;2.53;1.40;;;21.20;99.90;;;;;;5117398;28;20470;-89
2023/08/26 10:18:39;;;;;;;3.13;2.13;;;21.20;99.90;;;;;;5116999;28;20453;-88
2023/08/26 10:21:06;;;;;;;3.53;2.20;;;21.20;99.90;;;;;;5121972;27;20413;-89
2023/08/26 10:23:33;;;;;;;3.80;1.70;;;21.20;99.90;;;;;;5121056;28;20443;-88
2023/08/26 10:26:00;;;;;;;2.30;2.00;;;21.10;99.90;;;;;;5117037;28;20470;-87
2023/08/26 10:28:29;;;;;;;2.23;1.53;;;21.00;99.90;;;;;;5117081;28;20442;-87
2023/08/26 10:30:59;;;;;;;1.87;1.10;;;20.90;99.90;;;;;;5116765;28;20797;-87
2023/08/26 10:33:26;;;;;;;1.70;1.60;;;20.90;99.90;;;;;;5117282;28;20475;-87
2023/08/26 10:36:00;;;;;;;1.60;1.27;;;20.80;99.90;;;;;;5117299;28;20469;-88
2023/08/26 10:38:27;;;;;;;1.20;1.10;;;20.70;99.90;;;;;;5116948;28;20959;-87
2023/08/26 10:41:10;;;;;;;2.83;1.63;;;20.70;99.90;;;;;;5116525;28;20573;-88
2023/08/26 10:43:37;;;;;;;5.80;1.57;;;20.60;99.90;;;;;;5115249;28;20992;-87
2023/08/26 10:46:05;;;;;;;1.27;1.17;;;20.60;99.90;;;;;;5116696;28;20465;-87
2023/08/26 10:48:57;;;;;;;1.93;1.83;;;20.50;99.90;;;;;;5116690;28;20439;-87
2023/08/26 10:51:24;;;;;;;2.13;1.47;;;20.50;99.90;;;;;;5120500;28;20426;-92
2023/08/26 10:53:51;;;;;;;6.10;2.40;;;20.50;99.90;;;;;;5117110;28;20478;-90
2023/08/26 10:56:21;;;;;;;2.47;1.50;;;20.50;99.90;;;;;;5117190;28;20465;-89
2023/08/26 10:58:49;;;;;;;2.93;1.60;;;20.60;99.90;;;;;;5117192;28;20438;-90
2023/08/26 11:01:18;;;;;;;2.13;1.57;;;20.60;99.90;;;;;;5117030;28;20442;-89
2023/08/26 11:03:46;;;;;;;2.00;1.60;;;20.70;99.90;;;;;;5115756;28;20570;-89
2023/08/26 11:06:19;;;;;;;6.63;1.40;;;20.70;99.90;;;;;;5116947;28;20462;-90
2023/08/26 11:08:53;;;;;;;2.40;2.27;;;20.70;99.90;;;;;;5116919;28;20521;-90
2023/08/26 11:11:20;;;;;;;2.70;1.80;;;20.60;99.90;;;;;;5116432;28;20916;-93
2023/08/26 11:13:47;;;;;;;1.93;1.77;;;20.60;99.90;;;;;;5116588;28;20486;-90
2023/08/26 11:16:15;;;;;;;2.17;1.97;;;20.70;99.90;;;;;;5116072;28;20467;-88
2023/08/26 11:18:43;;;;;;;1.73;1.63;;;20.70;99.90;;;;;;5116295;28;20443;-87
2023/08/26 11:21:10;;;;;;;2.97;2.03;;;20.70;99.90;;;;;;5116010;28;20449;-87
2023/08/26 11:23:39;;;;;;;2.30;1.87;;;20.60;99.90;;;;;;5116103;28;20442;-87
2023/08/26 11:26:07;;;;;;;2.00;1.53;;;20.60;99.90;;;;;;5115872;28;20458;-87
2023/08/26 11:28:34;;;;;;;4.23;1.73;;;20.40;99.90;;;;;;5116038;28;20495;-89
2023/08/26 11:31:02;;;;;;;3.07;2.10;;;20.30;99.90;;;;;;5115938;28;20454;-88
2023/08/26 11:33:29;;;;;;;1.93;1.70;;;20.30;99.90;;;;;;5116007;28;20574;-88
2023/08/26 11:35:58;;;;;;;4.27;1.60;;;20.30;99.90;;;;;;5115905;28;20462;-88
2023/08/26 11:38:24;;;;;;;2.50;2.10;;;20.30;99.90;;;;;;5115985;28;20787;-88
2023/08/26 11:40:51;;;;;;;1.87;1.77;;;20.30;99.90;;;;;;5115945;28;20449;-88
2023/08/26 11:43:18;;;;;;;4.17;2.20;;;20.20;99.90;;;;;;5115097;28;20932;-87
2023/08/26 11:45:47;;;;;;;4.73;1.80;;;20.10;99.90;;;;;;5115147;28;20843;-87
2023/08/26 11:48:14;;;;;;;1.57;1.47;;;20.10;99.90;;;;;;5115305;28;20453;-87
2023/08/26 11:50:41;;;;;;;2.83;2.23;;;20.10;99.90;;;;;;5115167;28;20935;-86
2023/08/26 11:53:10;;;;;;;4.63;2.60;;;20.10;99.90;;;;;;5114827;28;20466;-87
2023/08/26 11:55:37;;;;;;;2.13;1.40;;;20.00;99.90;;;;;;5115358;28;20467;-87
2023/08/26 11:58:04;;;;;;;2.10;1.43;;;20.00;99.90;;;;;;5114886;28;20451;-87
2023/08/26 12:00:33;;;;;;;5.13;2.30;;;20.00;99.90;;;;;;5115009;28;20445;-87
2023/08/26 12:03:04;;;;;;;3.60;1.70;;;19.90;99.90;;;;;;5115270;28;20435;-88
2023/08/26 12:05:45;;;;;;;4.70;2.90;;;19.80;99.90;;;;;;5115291;28;20455;-91
2023/08/26 12:08:19;;;;;;;5.20;2.93;;;19.80;99.90;;;;;;5115696;28;20451;-91
2023/08/26 12:10:48;;;;;;;2.93;2.07;;;19.70;99.90;;;;;;5115520;28;20518;-90
2023/08/26 12:13:14;;;;;;;2.03;1.60;;;19.70;99.90;;;;;;5115455;28;20489;-91
2023/08/26 12:15:42;;;;;;;4.90;2.33;;;19.60;99.90;;;;;;5115215;28;20463;-90
2023/08/26 12:18:10;;;;;;;3.63;1.60;;;19.60;99.90;;;;;;5115157;28;20450;-91
2023/08/26 12:20:37;;;;;;;2.90;2.30;;;19.50;99.90;;;;;;5115122;28;20443;-91
2023/08/26 12:23:05;;;;;;;3.60;2.13;;;19.60;99.90;;;;;;5115414;27;20439;-90
2023/08/26 12:25:36;;;;;;;3.10;1.80;;;19.50;99.90;;;;;;5115341;28;20474;-90
2023/08/26 12:28:10;;;;;;;3.33;2.07;;;19.50;99.90;;;;;;5115015;28;20965;-91
2023/08/26 12:30:37;;;;;;;1.87;1.77;;;19.50;99.90;;;;;;5115328;28;20458;-91
2023/08/26 12:33:05;;;;;;;2.47;2.27;;;19.30;99.90;;;;;;5116009;28;20475;-91
2023/08/26 12:35:32;;;;;;;4.60;2.57;;;19.40;99.90;;;;;;5115664;28;20504;-92
2023/08/26 12:38:02;;;;;;;2.80;2.33;;;19.40;99.90;;;;;;5114856;28;20431;-95
2023/08/26 12:40:29;;;;;;;1.80;1.63;;;19.70;99.90;;;;;;5114963;28;20553;-95
2023/08/26 12:42:57;;;;;;;6.13;2.47;;;19.30;99.90;;;;;;5115271;28;20955;-94
2023/08/26 12:45:24;;;;;;;3.23;1.70;;;19.20;99.90;;;;;;5115104;28;20450;-94
2023/08/26 12:47:51;;;;;;;2.03;1.80;;;19.00;99.90;;;;;;5114896;28;20435;-95
2023/08/26 12:50:18;;;;;;;2.03;1.53;;;18.90;99.90;;;;;;5115284;28;20435;-95